Time;durP1;ratioP1;P1;durP2;ratioP2;P2;SDS_P1;SDS_P2;PMS_P1;PMS_P2;Temp;Humidity;BMP_temperature;BMP_pressure;BME280_temperature;BME280_humidity;BME280_pressure;Samples;Min_cycle;Max_cycle;Signal;HPM_P1;HPM_P2
2021/10/04 00:01:32;;;;;;;1.70;1.30;;;15.90;86.50;;;;;;5072624;28;20271;-73
2021/10/04 00:03:58;;;;;;;2.17;1.03;;;15.90;87.30;;;;;;5072458;28;20215;-73
2021/10/04 00:06:24;;;;;;;1.80;1.30;;;15.90;88.30;;;;;;5072725;28;20222;-74
2021/10/04 00:08:49;;;;;;;3.33;1.53;;;15.90;89.00;;;;;;5070733;28;20672;-73
2021/10/04 00:11:15;;;;;;;1.90;1.50;;;16.00;89.50;;;;;;5072288;28;20720;-74
2021/10/04 00:13:41;;;;;;;2.90;1.60;;;16.00;90.10;;;;;;5072118;28;20192;-73
2021/10/04 00:16:07;;;;;;;2.30;1.50;;;16.00;90.20;;;;;;5071201;28;20503;-73
2021/10/04 00:18:33;;;;;;;2.67;1.77;;;16.00;90.00;;;;;;5071289;28;20953;-73
2021/10/04 00:20:58;;;;;;;2.10;1.30;;;15.90;90.00;;;;;;5064685;28;20212;-74
2021/10/04 00:23:24;;;;;;;2.17;1.33;;;15.90;90.00;;;;;;5072189;28;20446;-73
2021/10/04 00:25:50;;;;;;;2.10;1.27;;;15.90;90.40;;;;;;5072369;28;20238;-73
2021/10/04 00:28:16;;;;;;;2.13;1.37;;;15.90;90.60;;;;;;5071724;28;20806;-73
2021/10/04 00:30:42;;;;;;;2.47;1.40;;;15.90;90.10;;;;;;5072118;28;20238;-73
2021/10/04 00:33:08;;;;;;;2.50;1.57;;;15.90;90.40;;;;;;5070865;28;20740;-73
2021/10/04 00:35:33;;;;;;;2.23;1.40;;;15.90;90.50;;;;;;5071932;28;20195;-73
2021/10/04 00:37:59;;;;;;;1.77;1.33;;;16.00;90.50;;;;;;5071881;28;20199;-73
2021/10/04 00:40:31;;;;;;;2.70;1.60;;;15.90;90.40;;;;;;5077865;28;20209;-73
2021/10/04 00:42:57;;;;;;;1.80;1.40;;;15.80;88.90;;;;;;5071656;28;20658;-72
2021/10/04 00:45:25;;;;;;;2.50;1.13;;;15.60;87.70;;;;;;5065882;28;20430;-73
2021/10/04 00:47:51;;;;;;;1.30;0.90;;;15.60;87.40;;;;;;5066442;28;20426;-72
2021/10/04 00:50:19;;;;;;;1.83;1.20;;;15.60;87.10;;;;;;5071252;28;20440;-72
2021/10/04 00:52:44;;;;;;;2.00;1.37;;;15.60;87.10;;;;;;5071749;28;20446;-74
2021/10/04 00:55:11;;;;;;;1.70;1.47;;;15.50;86.90;;;;;;5071403;28;20430;-73
2021/10/04 00:57:37;;;;;;;2.60;1.20;;;15.30;87.70;;;;;;5071675;28;20739;-73
2021/10/04 01:00:10;;;;;;;3.37;1.60;;;15.40;87.80;;;;;;5071111;28;20470;-74
2021/10/04 01:02:36;;;;;;;2.50;1.43;;;15.40;87.70;;;;;;5071733;28;20464;-73
2021/10/04 01:05:03;;;;;;;2.17;1.17;;;15.40;87.60;;;;;;5070734;28;20455;-72
2021/10/04 01:07:29;;;;;;;3.10;1.40;;;15.40;87.80;;;;;;5065535;28;20191;-73
2021/10/04 01:09:55;;;;;;;1.90;1.00;;;15.30;88.30;;;;;;5071159;28;20520;-73
2021/10/04 01:12:20;;;;;;;2.00;1.50;;;15.20;88.30;;;;;;5072274;28;20274;-72
2021/10/04 01:14:46;;;;;;;2.10;1.40;;;15.10;88.70;;;;;;5072316;28;20235;-73
2021/10/04 01:17:12;;;;;;;2.33;1.30;;;15.00;89.00;;;;;;5072050;28;20200;-73
2021/10/04 01:19:41;;;;;;;3.07;1.60;;;15.10;89.20;;;;;;5069718;28;20212;-73
2021/10/04 01:22:09;;;;;;;2.70;1.30;;;15.10;88.70;;;;;;5071383;28;20548;-73
2021/10/04 01:24:36;;;;;;;1.50;1.10;;;15.10;88.60;;;;;;5072052;28;20429;-72
2021/10/04 01:27:03;;;;;;;2.43;1.20;;;15.10;88.40;;;;;;5071724;28;20481;-72
2021/10/04 01:29:29;;;;;;;1.93;1.17;;;15.10;88.40;;;;;;5071818;28;20480;-72
2021/10/04 01:31:55;;;;;;;2.37;1.40;;;15.10;87.80;;;;;;5070278;28;20473;-72
2021/10/04 01:34:21;;;;;;;2.00;1.10;;;15.10;88.10;;;;;;5068463;28;20462;-72
2021/10/04 01:36:46;;;;;;;2.10;1.20;;;15.20;88.00;;;;;;5061089;28;20264;-74
2021/10/04 01:39:12;;;;;;;2.97;1.60;;;15.00;88.30;;;;;;5070236;28;20705;-71
2021/10/04 01:41:38;;;;;;;3.80;1.63;;;15.10;88.60;;;;;;5063742;28;20771;-72
2021/10/04 01:44:04;;;;;;;3.60;1.23;;;15.10;88.30;;;;;;5069114;28;20767;-71
2021/10/04 01:46:30;;;;;;;1.30;1.00;;;15.10;88.10;;;;;;5071454;28;20286;-73
2021/10/04 01:48:56;;;;;;;4.50;1.57;;;15.10;87.80;;;;;;5074636;28;20591;-71
2021/10/04 01:51:22;;;;;;;2.33;1.40;;;15.00;87.70;;;;;;5071603;28;20184;-72
2021/10/04 01:53:47;;;;;;;2.23;1.13;;;15.00;87.80;;;;;;5074311;28;20426;-72
2021/10/04 01:56:14;;;;;;;1.60;1.20;;;15.00;87.80;;;;;;5073945;28;20226;-71
2021/10/04 01:58:40;;;;;;;2.90;1.30;;;15.00;86.80;;;;;;5066787;28;20232;-71
2021/10/04 02:01:07;;;;;;;1.20;0.93;;;15.00;86.00;;;;;;5069051;28;20902;-73
2021/10/04 02:03:33;;;;;;;2.90;1.17;;;14.90;86.00;;;;;;5070526;28;20222;-72
2021/10/04 02:05:59;;;;;;;2.50;1.43;;;14.80;86.90;;;;;;5070652;28;20933;-72
2021/10/04 02:08:25;;;;;;;1.10;0.97;;;14.80;87.40;;;;;;5070010;28;20199;-71
2021/10/04 02:10:52;;;;;;;3.10;1.07;;;14.70;87.30;;;;;;5070605;28;20507;-71
2021/10/04 02:13:18;;;;;;;2.57;1.40;;;14.70;87.40;;;;;;5069917;28;20418;-72
2021/10/04 02:15:44;;;;;;;1.43;0.90;;;14.80;87.70;;;;;;5070026;28;20431;-72
2021/10/04 02:18:11;;;;;;;1.57;1.10;;;14.90;88.00;;;;;;5068748;28;20914;-71
2021/10/04 02:20:42;;;;;;;2.40;1.50;;;14.70;88.70;;;;;;5069482;28;20203;-72
2021/10/04 02:23:09;;;;;;;1.43;1.20;;;14.70;88.30;;;;;;5068462;28;20507;-71
2021/10/04 02:25:38;;;;;;;2.10;1.30;;;14.70;88.60;;;;;;5069976;28;20770;-74
2021/10/04 02:28:05;;;;;;;1.57;0.90;;;14.60;89.30;;;;;;5069134;28;20426;-72
2021/10/04 02:30:31;;;;;;;2.50;1.33;;;14.40;90.10;;;;;;5069580;28;20419;-72
2021/10/04 02:32:57;;;;;;;1.43;0.97;;;14.40;90.50;;;;;;5069646;28;20492;-72
2021/10/04 02:35:23;;;;;;;1.40;1.13;;;14.30;90.90;;;;;;5068169;28;20206;-72
2021/10/04 02:37:51;;;;;;;1.63;1.20;;;14.30;91.20;;;;;;5069320;28;20484;-73
2021/10/04 02:40:18;;;;;;;2.03;1.30;;;14.30;91.40;;;;;;5075105;28;20461;-73
2021/10/04 02:42:44;;;;;;;2.90;1.30;;;14.20;91.40;;;;;;5069715;28;20638;-72
2021/10/04 02:45:12;;;;;;;2.50;1.33;;;14.10;91.70;;;;;;5069634;28;20475;-73
2021/10/04 02:47:38;;;;;;;1.93;1.27;;;14.00;92.00;;;;;;5068198;28;20426;-73
2021/10/04 02:50:05;;;;;;;1.70;1.10;;;14.10;92.20;;;;;;5067988;28;20464;-73
2021/10/04 02:52:31;;;;;;;1.93;1.17;;;14.00;92.40;;;;;;5069597;28;20188;-72
2021/10/04 02:54:57;;;;;;;1.47;1.27;;;14.00;92.60;;;;;;5069278;28;20426;-73
2021/10/04 02:57:22;;;;;;;1.37;1.07;;;14.00;92.60;;;;;;5069395;28;20211;-72
2021/10/04 02:59:48;;;;;;;1.83;1.30;;;14.00;92.80;;;;;;5069252;28;20318;-72
2021/10/04 03:02:14;;;;;;;2.80;1.17;;;13.90;93.00;;;;;;5069571;28;21010;-73
2021/10/04 03:04:39;;;;;;;2.50;1.23;;;13.90;93.10;;;;;;5069385;28;20187;-72
2021/10/04 03:07:05;;;;;;;2.73;1.20;;;13.80;93.20;;;;;;5068909;28;20541;-72
2021/10/04 03:09:31;;;;;;;1.43;1.00;;;13.80;93.50;;;;;;5068895;28;20200;-72
2021/10/04 03:11:57;;;;;;;2.47;1.10;;;13.80;93.50;;;;;;5069560;28;20411;-72
2021/10/04 03:14:23;;;;;;;1.17;1.00;;;13.80;93.50;;;;;;5069274;28;21797;-72
2021/10/04 03:16:52;;;;;;;1.63;1.00;;;13.80;93.50;;;;;;5068940;28;20418;-73
2021/10/04 03:19:19;;;;;;;1.43;1.07;;;13.70;93.90;;;;;;5068798;28;20234;-71
2021/10/04 03:21:45;;;;;;;1.93;1.10;;;13.70;94.10;;;;;;5069165;28;20474;-72
2021/10/04 03:24:13;;;;;;;3.90;1.33;;;13.80;94.00;;;;;;5069302;28;20422;-72
2021/10/04 03:26:40;;;;;;;1.83;1.07;;;13.90;93.90;;;;;;5058123;28;20411;-73
2021/10/04 03:29:06;;;;;;;1.47;1.10;;;13.80;93.50;;;;;;5068306;28;20440;-72
2021/10/04 03:31:32;;;;;;;1.67;1.10;;;13.70;93.60;;;;;;5077093;28;20425;-73
2021/10/04 03:33:58;;;;;;;3.20;1.03;;;13.70;94.00;;;;;;5075810;28;20791;-74
2021/10/04 03:36:23;;;;;;;1.73;1.37;;;13.60;94.40;;;;;;5075118;28;20748;-72
2021/10/04 03:38:50;;;;;;;2.30;0.97;;;13.50;94.60;;;;;;5074270;28;21026;-73
2021/10/04 03:41:16;;;;;;;2.30;1.30;;;13.40;95.10;;;;;;5078246;28;20230;-72
2021/10/04 03:43:41;;;;;;;1.27;0.97;;;13.30;95.70;;;;;;5074224;28;20920;-73
2021/10/04 03:46:07;;;;;;;1.80;1.07;;;13.30;96.10;;;;;;5074718;28;20249;-73
2021/10/04 03:48:33;;;;;;;2.00;0.90;;;13.20;96.20;;;;;;5073135;28;20211;-72
2021/10/04 03:50:59;;;;;;;4.90;1.27;;;13.10;96.50;;;;;;5072638;28;20192;-74
2021/10/04 03:53:24;;;;;;;1.90;1.30;;;13.20;96.80;;;;;;5071529;28;20179;-71
2021/10/04 03:55:50;;;;;;;1.33;0.90;;;13.10;96.70;;;;;;5072710;28;20187;-72
2021/10/04 03:58:16;;;;;;;1.30;0.97;;;13.10;96.60;;;;;;5072335;28;20184;-73
2021/10/04 04:00:41;;;;;;;2.10;1.10;;;13.10;96.70;;;;;;5072165;28;20206;-73
2021/10/04 04:03:07;;;;;;;1.27;0.93;;;13.10;96.50;;;;;;5072592;28;20658;-73
2021/10/04 04:05:33;;;;;;;1.67;0.90;;;13.20;96.50;;;;;;5072569;28;20184;-73
2021/10/04 04:07:59;;;;;;;1.03;1.00;;;13.10;96.30;;;;;;5072222;28;20558;-74
2021/10/04 04:10:25;;;;;;;1.47;1.10;;;13.10;96.40;;;;;;5072395;28;20454;-72
2021/10/04 04:12:50;;;;;;;2.93;1.20;;;13.10;96.40;;;;;;5072942;28;20211;-74
2021/10/04 04:15:17;;;;;;;5.23;1.30;;;13.10;96.40;;;;;;5072289;28;20184;-72
2021/10/04 04:17:42;;;;;;;1.97;0.90;;;13.20;96.50;;;;;;5072239;28;20222;-73
2021/10/04 04:20:10;;;;;;;1.80;1.10;;;13.20;96.40;;;;;;5071868;28;20867;-73
2021/10/04 04:22:35;;;;;;;2.33;1.30;;;13.20;96.70;;;;;;5072033;28;20210;-73
2021/10/04 04:25:03;;;;;;;1.40;1.03;;;13.30;96.90;;;;;;5072413;28;20467;-73
2021/10/04 04:27:28;;;;;;;1.73;1.20;;;13.30;96.80;;;;;;5064436;28;20187;-73
2021/10/04 04:29:57;;;;;;;2.03;1.10;;;13.40;96.70;;;;;;5072081;28;20446;-73
2021/10/04 04:32:23;;;;;;;1.47;0.90;;;13.40;96.70;;;;;;5072130;28;20543;-73
2021/10/04 04:34:49;;;;;;;1.10;0.83;;;13.30;96.50;;;;;;5072390;28;20418;-72
2021/10/04 04:37:15;;;;;;;4.57;1.50;;;13.30;96.50;;;;;;5071662;28;20487;-73
2021/10/04 04:39:40;;;;;;;2.33;1.40;;;13.30;96.20;;;;;;5073004;28;20445;-74
2021/10/04 04:42:07;;;;;;;1.77;1.13;;;13.30;96.10;;;;;;5073516;28;20180;-73
2021/10/04 04:44:33;;;;;;;2.17;1.17;;;13.30;96.10;;;;;;5073035;28;20191;-73
2021/10/04 04:46:59;;;;;;;1.47;1.00;;;13.30;95.70;;;;;;5073085;28;20414;-73
2021/10/04 04:49:28;;;;;;;10.80;1.70;;;13.30;95.70;;;;;;5072325;28;20966;-73
2021/10/04 04:51:56;;;;;;;3.13;1.37;;;13.40;95.80;;;;;;5069069;28;20422;-73
2021/10/04 04:54:22;;;;;;;1.57;1.00;;;13.40;95.90;;;;;;5070455;28;20933;-72
2021/10/04 04:56:48;;;;;;;1.20;0.90;;;13.40;96.10;;;;;;5066852;28;20426;-73
2021/10/04 04:59:15;;;;;;;1.67;1.20;;;13.40;96.20;;;;;;5073846;28;20462;-73
2021/10/04 05:01:43;;;;;;;2.33;1.33;;;13.40;96.20;;;;;;5072124;28;20462;-73
2021/10/04 05:04:10;;;;;;;2.93;1.53;;;13.40;96.30;;;;;;5071430;28;20512;-73
2021/10/04 05:06:36;;;;;;;2.50;1.10;;;13.50;96.20;;;;;;5071122;28;20422;-73
2021/10/04 05:09:02;;;;;;;3.00;1.57;;;13.50;95.80;;;;;;5071498;28;21008;-74
2021/10/04 05:11:27;;;;;;;1.70;1.33;;;13.50;95.70;;;;;;5071205;28;20524;-74
2021/10/04 05:13:53;;;;;;;3.40;1.53;;;13.50;95.60;;;;;;5071449;28;20425;-72
2021/10/04 05:16:19;;;;;;;3.10;1.40;;;13.50;95.50;;;;;;5072141;28;20749;-73
2021/10/04 05:18:44;;;;;;;2.10;1.43;;;13.50;95.50;;;;;;5071539;28;20234;-72
2021/10/04 05:21:10;;;;;;;3.30;1.67;;;13.40;95.70;;;;;;5070728;28;20765;-72
2021/10/04 05:23:36;;;;;;;2.63;1.90;;;13.40;95.90;;;;;;5071523;28;20305;-74
2021/10/04 05:26:03;;;;;;;3.63;1.67;;;13.40;96.10;;;;;;5071071;28;21307;-72
2021/10/04 05:28:29;;;;;;;2.83;2.10;;;13.30;96.30;;;;;;5072662;28;20255;-72
2021/10/04 05:30:55;;;;;;;5.53;2.10;;;13.30;96.50;;;;;;5075160;28;20434;-73
2021/10/04 05:33:21;;;;;;;3.10;2.20;;;13.40;96.50;;;;;;5080140;28;20437;-73
2021/10/04 05:35:46;;;;;;;2.03;1.73;;;13.30;96.50;;;;;;5074224;28;20425;-73
2021/10/04 05:38:12;;;;;;;4.53;1.80;;;13.30;96.90;;;;;;5071015;28;20207;-72
2021/10/04 05:40:38;;;;;;;2.93;1.93;;;13.30;97.20;;;;;;5076832;28;20208;-73
2021/10/04 05:43:04;;;;;;;2.30;1.40;;;13.30;97.50;;;;;;5071360;28;20218;-73
2021/10/04 05:45:30;;;;;;;3.13;1.60;;;13.30;97.50;;;;;;5071246;28;20184;-73
2021/10/04 05:47:56;;;;;;;2.63;1.70;;;13.30;97.20;;;;;;5070384;28;20865;-73
2021/10/04 05:50:22;;;;;;;3.80;2.03;;;13.20;97.10;;;;;;5070693;28;20537;-74
2021/10/04 05:52:48;;;;;;;3.90;2.00;;;13.10;97.10;;;;;;5072009;28;20198;-74
2021/10/04 05:55:14;;;;;;;6.30;2.30;;;13.10;97.50;;;;;;5070628;28;20422;-72
2021/10/04 05:57:40;;;;;;;1.90;1.30;;;13.00;97.70;;;;;;5070175;28;20735;-73
2021/10/04 06:00:08;;;;;;;2.23;1.37;;;13.10;97.90;;;;;;5070151;28;20230;-73
2021/10/04 06:02:34;;;;;;;2.00;1.53;;;13.10;97.80;;;;;;5070593;28;20869;-72
2021/10/04 06:05:00;;;;;;;4.73;1.40;;;13.10;97.20;;;;;;5068765;28;20430;-73
2021/10/04 06:07:26;;;;;;;3.77;1.80;;;13.00;97.10;;;;;;5069867;28;20426;-72
2021/10/04 06:09:51;;;;;;;1.83;1.10;;;13.00;97.30;;;;;;5069985;28;20625;-72
2021/10/04 06:12:24;;;;;;;1.87;1.47;;;13.00;97.50;;;;;;5070748;28;20241;-73
2021/10/04 06:14:50;;;;;;;3.20;2.07;;;13.10;97.50;;;;;;5071285;28;20184;-73
2021/10/04 06:17:15;;;;;;;2.57;1.60;;;13.10;97.40;;;;;;5070249;28;20432;-73
2021/10/04 06:19:41;;;;;;;1.77;1.20;;;13.00;97.30;;;;;;5070186;28;20442;-72
2021/10/04 06:22:07;;;;;;;3.20;1.63;;;12.90;97.20;;;;;;5070146;28;20192;-73
2021/10/04 06:24:32;;;;;;;3.27;1.60;;;12.90;97.50;;;;;;5069896;28;20184;-73
2021/10/04 06:26:58;;;;;;;3.63;2.20;;;12.90;97.70;;;;;;5070330;28;20191;-73
2021/10/04 06:29:24;;;;;;;3.30;1.60;;;13.00;98.00;;;;;;5070064;28;20203;-74
2021/10/04 06:31:50;;;;;;;7.23;2.00;;;13.10;98.00;;;;;;5071392;28;20187;-72
2021/10/04 06:34:15;;;;;;;2.40;1.70;;;13.10;97.90;;;;;;5069532;28;20179;-73
2021/10/04 06:36:41;;;;;;;3.30;1.80;;;13.20;98.00;;;;;;5070185;28;20662;-72
2021/10/04 06:39:07;;;;;;;2.90;1.80;;;13.20;97.80;;;;;;5069448;28;20294;-73
2021/10/04 06:41:33;;;;;;;3.00;1.87;;;13.30;97.60;;;;;;5071076;28;20214;-73
2021/10/04 06:43:58;;;;;;;2.40;1.63;;;13.30;97.40;;;;;;5070455;28;20187;-73
2021/10/04 06:46:24;;;;;;;3.60;2.50;;;13.30;97.30;;;;;;5071063;28;20211;-73
2021/10/04 06:48:50;;;;;;;4.03;1.80;;;13.40;97.40;;;;;;5068907;28;20208;-73
2021/10/04 06:51:16;;;;;;;3.50;2.03;;;13.50;97.50;;;;;;5070516;28;20191;-74
2021/10/04 06:53:41;;;;;;;4.53;2.67;;;13.60;97.40;;;;;;5070470;28;20678;-73
2021/10/04 06:56:08;;;;;;;4.67;2.27;;;13.60;97.40;;;;;;5069011;28;21036;-73
2021/10/04 06:58:34;;;;;;;2.50;1.93;;;13.70;97.40;;;;;;5068119;28;20682;-72
2021/10/04 07:00:59;;;;;;;3.80;2.40;;;13.70;97.10;;;;;;5061318;28;20462;-72
2021/10/04 07:03:25;;;;;;;4.60;2.60;;;13.80;96.60;;;;;;5068638;28;20468;-73
2021/10/04 07:05:52;;;;;;;5.80;2.40;;;13.90;96.40;;;;;;5069350;28;20294;-72
2021/10/04 07:08:18;;;;;;;7.60;2.60;;;13.90;96.00;;;;;;5069499;28;20180;-73
2021/10/04 07:10:43;;;;;;;10.60;3.20;;;13.80;95.90;;;;;;5064126;28;20419;-74
2021/10/04 07:13:09;;;;;;;6.60;2.43;;;13.80;95.60;;;;;;5071081;28;20190;-74
2021/10/04 07:15:35;;;;;;;2.97;1.60;;;13.80;95.30;;;;;;5070833;28;20183;-74
2021/10/04 07:18:00;;;;;;;2.43;1.57;;;13.80;94.60;;;;;;5069841;28;20282;-74
2021/10/04 07:20:26;;;;;;;3.50;1.60;;;13.80;94.70;;;;;;5070291;28;20204;-73
2021/10/04 07:22:52;;;;;;;4.03;2.03;;;13.80;95.10;;;;;;5071222;28;20184;-73
2021/10/04 07:25:19;;;;;;;6.53;2.27;;;13.90;95.10;;;;;;5070152;28;20597;-73
2021/10/04 07:27:44;;;;;;;4.27;2.63;;;14.00;95.10;;;;;;5071149;28;20931;-74
2021/10/04 07:30:11;;;;;;;5.13;2.73;;;14.10;95.30;;;;;;5071666;28;20438;-74
2021/10/04 07:32:37;;;;;;;4.77;2.93;;;14.10;95.40;;;;;;5070955;28;20184;-73
2021/10/04 07:35:04;;;;;;;4.30;3.03;;;14.10;95.40;;;;;;5069142;28;20437;-73
2021/10/04 07:37:30;;;;;;;7.23;3.80;;;14.10;94.70;;;;;;5068612;28;20199;-74
2021/10/04 07:39:56;;;;;;;7.73;3.70;;;14.00;94.50;;;;;;5072474;28;20548;-74
2021/10/04 07:42:22;;;;;;;7.57;4.40;;;14.00;94.80;;;;;;5069990;28;20591;-74
2021/10/04 07:44:47;;;;;;;4.37;3.47;;;14.10;94.90;;;;;;5068952;28;20199;-73
2021/10/04 07:47:13;;;;;;;9.17;4.50;;;14.10;95.00;;;;;;5069445;28;20466;-74
2021/10/04 07:49:39;;;;;;;7.93;4.87;;;14.10;95.30;;;;;;5070074;28;20690;-73
2021/10/04 07:52:05;;;;;;;7.20;4.00;;;14.10;95.10;;;;;;5066206;28;20188;-74
2021/10/04 07:54:31;;;;;;;7.07;4.40;;;14.10;94.80;;;;;;5069043;28;20176;-73
2021/10/04 07:56:57;;;;;;;9.67;4.63;;;14.00;95.00;;;;;;5068728;28;20429;-73
2021/10/04 07:59:22;;;;;;;7.60;4.00;;;13.80;95.00;;;;;;5068644;28;20438;-73
2021/10/04 08:01:48;;;;;;;6.20;4.13;;;13.70;95.60;;;;;;5068881;28;20713;-73
2021/10/04 08:04:14;;;;;;;6.57;3.37;;;13.50;95.60;;;;;;5068510;28;20210;-72
2021/10/04 08:06:40;;;;;;;3.13;2.13;;;13.40;95.80;;;;;;5068528;28;20650;-72
2021/10/04 08:09:06;;;;;;;4.63;2.30;;;13.40;95.90;;;;;;5068337;28;20619;-73
2021/10/04 08:11:32;;;;;;;3.70;2.50;;;13.30;95.40;;;;;;5068761;28;20253;-73
2021/10/04 08:13:57;;;;;;;3.30;2.30;;;13.30;95.70;;;;;;5068856;28;20422;-73
2021/10/04 08:16:23;;;;;;;4.70;3.10;;;13.20;96.00;;;;;;5070379;28;20436;-73
2021/10/04 08:18:53;;;;;;;5.00;2.47;;;13.20;96.20;;;;;;5071113;28;20211;-73
2021/10/04 08:21:23;;;;;;;4.53;2.43;;;13.30;96.00;;;;;;5071769;28;20466;-72
2021/10/04 08:23:50;;;;;;;2.97;2.40;;;13.50;95.90;;;;;;5072110;28;20460;-73
2021/10/04 08:26:17;;;;;;;3.13;2.40;;;13.50;95.90;;;;;;5071583;28;20426;-73
2021/10/04 08:28:43;;;;;;;7.57;2.73;;;13.60;95.70;;;;;;5072400;28;20880;-73
2021/10/04 08:31:09;;;;;;;3.10;2.40;;;13.60;95.50;;;;;;5072553;28;20422;-73
2021/10/04 08:33:35;;;;;;;5.53;2.93;;;13.50;95.00;;;;;;5072277;28;20468;-73
2021/10/04 08:36:04;;;;;;;6.00;3.53;;;13.50;95.00;;;;;;5072016;28;20184;-72
2021/10/04 08:38:30;;;;;;;4.57;2.70;;;13.60;95.40;;;;;;5062802;28;20526;-71
2021/10/04 08:40:56;;;;;;;4.33;3.00;;;13.60;95.60;;;;;;5078966;28;20470;-73
2021/10/04 08:43:22;;;;;;;4.93;2.73;;;13.70;95.90;;;;;;5074187;28;20823;-72
2021/10/04 08:45:48;;;;;;;4.07;2.80;;;13.70;95.00;;;;;;5070579;28;20444;-74
2021/10/04 08:48:14;;;;;;;8.67;3.73;;;13.80;95.00;;;;;;5063605;28;20257;-72
2021/10/04 08:50:41;;;;;;;8.73;3.70;;;13.70;94.80;;;;;;5071616;28;20206;-73
2021/10/04 08:53:07;;;;;;;6.20;3.30;;;13.70;94.90;;;;;;5071676;28;20434;-72
2021/10/04 08:55:36;;;;;;;6.43;3.87;;;13.70;95.00;;;;;;5071392;28;20951;-71
2021/10/04 08:58:12;;;;;;;5.70;3.20;;;13.80;95.10;;;;;;5071811;28;20440;-73
2021/10/04 09:00:38;;;;;;;6.43;3.57;;;13.90;95.00;;;;;;5071395;28;20540;-72
2021/10/04 09:03:04;;;;;;;4.40;3.00;;;13.80;94.40;;;;;;5070806;28;20421;-74
2021/10/04 09:05:32;;;;;;;5.63;2.63;;;13.70;94.40;;;;;;5071703;28;20414;-73
2021/10/04 09:08:02;;;;;;;4.10;3.00;;;13.70;94.30;;;;;;5071375;28;20418;-72
2021/10/04 09:10:33;;;;;;;6.37;3.30;;;13.70;94.40;;;;;;5071207;28;20418;-73
2021/10/04 09:13:06;;;;;;;4.57;3.00;;;13.70;94.30;;;;;;5070605;28;20563;-72
2021/10/04 09:15:43;;;;;;;3.30;2.53;;;13.60;94.80;;;;;;5063852;28;20453;-73
2021/10/04 09:18:15;;;;;;;5.30;3.37;;;13.60;94.10;;;;;;5071376;28;20446;-73
2021/10/04 09:21:05;;;;;;;4.10;2.47;;;13.50;94.50;;;;;;5064524;28;20450;-73
2021/10/04 09:23:33;;;;;;;3.53;2.90;;;13.60;94.70;;;;;;5067272;28;20448;-74
2021/10/04 09:26:04;;;;;;;10.93;3.17;;;13.50;94.70;;;;;;5070108;28;20422;-74
2021/10/04 09:28:33;;;;;;;5.07;3.30;;;13.60;94.80;;;;;;5071975;28;20892;-72
2021/10/04 09:31:37;;;;;;;5.43;2.87;;;13.70;95.10;;;;;;5071009;28;20413;-72
2021/10/04 09:34:08;;;;;;;3.10;2.40;;;13.80;94.90;;;;;;5067139;28;20638;-71
2021/10/04 09:36:35;;;;;;;4.90;2.70;;;13.80;93.70;;;;;;5071196;28;20475;-73
2021/10/04 09:39:31;;;;;;;4.00;2.73;;;13.80;94.00;;;;;;5066907;28;20552;-72
2021/10/04 09:42:14;;;;;;;2.87;2.30;;;13.80;94.10;;;;;;5065313;28;20462;-72
2021/10/04 09:44:46;;;;;;;3.03;1.87;;;13.90;94.00;;;;;;5064107;28;20425;-73
2021/10/04 09:47:16;;;;;;;4.30;2.17;;;13.90;93.60;;;;;;5070693;28;20450;-74
2021/10/04 09:49:49;;;;;;;3.33;2.13;;;14.00;93.40;;;;;;5071187;28;20456;-73
2021/10/04 09:52:15;;;;;;;5.07;1.97;;;14.10;93.70;;;;;;5071515;28;20509;-74
2021/10/04 09:54:46;;;;;;;3.10;2.50;;;14.20;93.70;;;;;;5071127;28;20501;-75
2021/10/04 09:57:20;;;;;;;4.17;2.20;;;14.10;93.20;;;;;;5069510;28;20212;-73
2021/10/04 09:59:46;;;;;;;2.17;1.60;;;14.20;93.40;;;;;;5070681;28;20460;-75
2021/10/04 10:02:18;;;;;;;2.37;1.53;;;14.20;93.10;;;;;;5069347;28;20474;-74
2021/10/04 10:04:46;;;;;;;3.10;2.13;;;14.40;92.90;;;;;;5070103;28;20463;-72
2021/10/04 10:07:13;;;;;;;4.37;1.90;;;14.40;92.40;;;;;;5069871;28;20475;-73
2021/10/04 10:09:40;;;;;;;3.70;2.10;;;14.50;92.50;;;;;;5068527;28;20442;-74
2021/10/04 10:12:07;;;;;;;1.77;1.43;;;14.70;92.30;;;;;;5065697;28;20971;-73
2021/10/04 10:14:42;;;;;;;3.63;1.90;;;14.80;91.70;;;;;;5070235;28;20430;-74
2021/10/04 10:17:15;;;;;;;2.13;1.40;;;15.00;91.30;;;;;;5068750;28;20533;-73
2021/10/04 10:19:44;;;;;;;2.50;1.90;;;15.10;91.00;;;;;;5073705;28;20485;-73
2021/10/04 10:22:15;;;;;;;1.80;1.30;;;15.00;90.20;;;;;;5072393;28;20469;-74
2021/10/04 10:24:42;;;;;;;2.43;1.40;;;15.20;89.90;;;;;;5071060;28;20520;-72
2021/10/04 10:27:09;;;;;;;3.40;1.50;;;15.50;89.60;;;;;;5072709;28;20418;-73
2021/10/04 10:29:35;;;;;;;2.30;1.70;;;15.60;88.40;;;;;;5074969;28;20449;-73
2021/10/04 10:32:01;;;;;;;1.70;1.20;;;15.80;89.30;;;;;;5075511;28;20889;-72
2021/10/04 10:34:30;;;;;;;2.30;1.43;;;15.90;86.60;;;;;;5076288;28;20450;-73
2021/10/04 10:37:27;;;;;;;5.00;2.63;;;15.90;87.60;;;;;;5073857;28;20238;-73
2021/10/04 10:40:00;;;;;;;2.23;1.30;;;16.00;88.10;;;;;;5070992;28;20976;-73
2021/10/04 10:42:44;;;;;;;2.60;1.83;;;16.10;87.40;;;;;;5073015;28;20456;-72
2021/10/04 10:45:15;;;;;;;2.70;1.70;;;16.10;87.10;;;;;;5073394;28;20428;-73
2021/10/04 10:47:40;;;;;;;2.70;1.50;;;16.10;86.80;;;;;;5073403;28;20439;-73
2021/10/04 10:50:29;;;;;;;1.90;1.17;;;16.10;87.30;;;;;;5071498;28;20437;-73
2021/10/04 10:52:57;;;;;;;2.23;1.30;;;16.20;86.80;;;;;;5067672;28;20248;-73
2021/10/04 10:55:23;;;;;;;1.27;1.10;;;16.30;85.60;;;;;;5071864;28;20418;-73
2021/10/04 10:58:12;;;;;;;3.23;1.77;;;16.30;85.60;;;;;;5072204;28;20945;-73
2021/10/04 11:00:39;;;;;;;4.63;1.37;;;16.20;86.30;;;;;;5070913;28;20320;-73
2021/10/04 11:03:12;;;;;;;1.70;1.07;;;16.10;85.90;;;;;;5070158;28;20479;-74
2021/10/04 11:05:38;;;;;;;1.17;0.90;;;16.10;86.00;;;;;;5069122;28;20430;-74
2021/10/04 11:08:14;;;;;;;4.13;1.70;;;16.20;85.50;;;;;;5071099;28;21003;-72
2021/10/04 11:11:05;;;;;;;8.40;1.60;;;16.20;86.00;;;;;;5064888;28;20178;-74
2021/10/04 11:13:35;;;;;;;2.20;1.30;;;16.30;86.00;;;;;;5070703;28;20532;-73
2021/10/04 11:16:24;;;;;;;1.50;1.20;;;16.30;86.00;;;;;;5071491;28;20768;-73
2021/10/04 11:18:51;;;;;;;2.67;1.30;;;16.30;86.90;;;;;;5064702;28;21010;-73
2021/10/04 11:21:20;;;;;;;1.37;1.13;;;16.20;86.90;;;;;;5069231;28;20486;-73
2021/10/04 11:24:03;;;;;;;2.90;1.60;;;16.20;86.60;;;;;;5072806;28;20426;-74
2021/10/04 11:26:31;;;;;;;1.97;1.40;;;16.30;86.20;;;;;;5070986;28;20446;-74
2021/10/04 11:29:00;;;;;;;3.33;1.60;;;16.40;86.00;;;;;;5068908;28;20509;-73
2021/10/04 11:31:31;;;;;;;1.23;1.00;;;16.50;85.70;;;;;;5075840;28;20507;-73
2021/10/04 11:33:59;;;;;;;1.47;1.10;;;16.60;83.80;;;;;;5071847;28;20493;-74
2021/10/04 11:36:45;;;;;;;2.30;1.20;;;16.50;83.70;;;;;;5068891;28;20457;-73
2021/10/04 11:39:26;;;;;;;2.20;1.57;;;16.60;82.80;;;;;;5068137;28;20482;-75
2021/10/04 11:41:55;;;;;;;1.73;1.10;;;16.60;83.10;;;;;;5067415;28;20470;-72
2021/10/04 11:44:24;;;;;;;1.83;1.30;;;16.60;81.50;;;;;;5069107;28;20422;-73
2021/10/04 11:46:56;;;;;;;2.33;1.40;;;16.70;82.10;;;;;;5069008;28;20426;-74
2021/10/04 11:49:25;;;;;;;3.27;1.40;;;16.70;83.10;;;;;;5069050;28;20434;-73
2021/10/04 11:51:53;;;;;;;2.80;1.20;;;16.80;83.40;;;;;;5073230;28;20454;-74
2021/10/04 11:54:47;;;;;;;2.80;1.70;;;16.80;82.80;;;;;;5071081;28;20440;-74
2021/10/04 11:57:31;;;;;;;3.17;1.67;;;16.80;83.30;;;;;;5071049;28;21122;-73
2021/10/04 12:00:01;;;;;;;1.27;1.07;;;16.70;83.30;;;;;;5072349;28;20850;-74
2021/10/04 12:02:31;;;;;;;1.97;1.50;;;16.70;83.70;;;;;;5072880;28;20436;-74
2021/10/04 12:05:12;;;;;;;4.80;1.50;;;16.80;84.60;;;;;;5072391;28;20418;-73
2021/10/04 12:07:58;;;;;;;1.97;1.57;;;16.80;84.70;;;;;;5072309;28;20420;-74
2021/10/04 12:10:36;;;;;;;1.93;1.33;;;16.80;83.80;;;;;;5072189;28;20441;-72
2021/10/04 12:13:02;;;;;;;1.97;1.47;;;16.80;84.30;;;;;;5072769;28;20463;-74
2021/10/04 12:15:28;;;;;;;2.90;1.80;;;16.90;83.70;;;;;;5071891;28;20417;-74
2021/10/04 12:17:54;;;;;;;2.27;1.60;;;16.90;83.40;;;;;;5072929;28;20192;-75
2021/10/04 12:20:23;;;;;;;2.33;1.30;;;17.00;82.40;;;;;;5072570;28;20526;-74
2021/10/04 12:22:50;;;;;;;2.10;1.70;;;17.00;83.00;;;;;;5072389;28;20453;-74
2021/10/04 12:25:31;;;;;;;4.30;2.23;;;17.00;83.40;;;;;;5071860;28;20407;-73
2021/10/04 12:28:05;;;;;;;3.63;2.23;;;16.90;83.70;;;;;;5072145;28;20427;-73
2021/10/04 12:30:45;;;;;;;2.63;1.97;;;16.90;83.60;;;;;;5063996;28;20417;-73
2021/10/04 12:33:11;;;;;;;2.70;1.83;;;16.90;83.40;;;;;;5069851;28;20413;-73
2021/10/04 12:35:37;;;;;;;3.40;2.10;;;17.00;83.60;;;;;;5071523;28;20418;-74
2021/10/04 12:38:06;;;;;;;2.70;2.23;;;17.00;83.60;;;;;;5070573;28;20204;-74
2021/10/04 12:40:40;;;;;;;4.23;1.87;;;17.10;82.50;;;;;;5070751;28;20472;-73
2021/10/04 12:43:11;;;;;;;2.40;2.07;;;17.10;82.70;;;;;;5070973;28;20437;-73
2021/10/04 12:45:39;;;;;;;3.07;1.83;;;17.10;81.70;;;;;;5071737;28;20414;-74
2021/10/04 12:48:16;;;;;;;3.83;2.03;;;17.10;79.30;;;;;;5072335;28;20414;-73
2021/10/04 12:50:44;;;;;;;3.10;1.90;;;17.00;80.60;;;;;;5072168;28;20437;-73